createdAt,value
2017-08-13T00:00:01.119Z,0
2017-08-13T00:01:11.229Z,0
2017-08-13T00:02:21.175Z,0
2017-08-13T00:06:03.784Z,0
2017-08-13T00:09:45.810Z,0
2017-08-13T00:10:55.762Z,0
2017-08-13T00:12:06.011Z,0
2017-08-13T00:13:15.955Z,0
2017-08-13T00:14:25.901Z,0
2017-08-13T00:15:36.148Z,0
2017-08-13T00:19:18.751Z,0
2017-08-13T00:23:02.248Z,0
2017-08-13T00:24:12.184Z,0
2017-08-13T00:25:22.425Z,0
2017-08-13T00:26:32.370Z,0
2017-08-13T00:27:42.290Z,0
2017-08-13T00:28:51.916Z,0
2017-08-13T00:30:01.852Z,0
2017-08-13T00:31:12.087Z,0
2017-08-13T00:32:22.322Z,0
2017-08-13T00:33:32.567Z,0
2017-08-13T00:34:42.503Z,0
2017-08-13T00:35:52.741Z,0
2017-08-13T00:37:03.010Z,0
2017-08-13T00:38:12.953Z,0
2017-08-13T00:39:22.890Z,0
2017-08-13T00:40:33.126Z,0
2017-08-13T00:41:42.740Z,0
2017-08-13T00:42:52.669Z,0
2017-08-13T00:44:02.629Z,0
2017-08-13T00:45:12.556Z,0
2017-08-13T00:46:22.181Z,0
2017-08-13T00:47:31.798Z,0
2017-08-13T00:48:41.732Z,0
2017-08-13T00:49:51.678Z,0
2017-08-13T00:51:01.627Z,0
2017-08-13T00:52:11.263Z,0
2017-08-13T00:53:20.886Z,0
2017-08-13T00:54:30.838Z,0
2017-08-13T00:55:41.086Z,0
2017-08-13T00:56:51.021Z,0
2017-08-13T00:58:00.946Z,0
2017-08-13T00:59:10.883Z,0
2017-08-13T01:00:20.841Z,0
2017-08-13T01:01:31.094Z,0
2017-08-13T01:02:41.040Z,0
2017-08-13T01:03:50.664Z,0
2017-08-13T01:05:00.911Z,0
2017-08-13T01:06:10.546Z,0
2017-08-13T01:07:20.488Z,0
2017-08-13T01:08:30.455Z,0
2017-08-13T01:09:39.784Z,0
2017-08-13T01:10:50.019Z,0
2017-08-13T01:11:59.955Z,0
2017-08-13T01:13:09.875Z,0
2017-08-13T01:14:20.118Z,0
2017-08-13T01:15:30.058Z,0
2017-08-13T01:16:39.991Z,0
2017-08-13T01:17:50.227Z,0
2017-08-13T01:18:59.849Z,0
2017-08-13T01:20:08.859Z,0
2017-08-13T01:21:19.121Z,0
2017-08-13T01:22:29.062Z,0
2017-08-13T01:23:39.310Z,0
2017-08-13T01:24:49.223Z,0
2017-08-13T01:25:59.145Z,0
2017-08-13T01:27:09.422Z,0
2017-08-13T01:28:19.680Z,0
2017-08-13T01:29:29.639Z,0
2017-08-13T01:30:39.562Z,0
2017-08-13T01:31:49.499Z,0
2017-08-13T01:32:59.123Z,0
2017-08-13T01:34:08.453Z,0
2017-08-13T01:35:18.086Z,0
2017-08-13T01:36:27.389Z,0
2017-08-13T01:37:37.316Z,0
2017-08-13T01:38:47.558Z,0
2017-08-13T01:39:56.886Z,0
2017-08-13T01:41:06.537Z,0
2017-08-13T01:42:16.777Z,0
2017-08-13T01:43:27.011Z,0
2017-08-13T01:44:36.952Z,0
2017-08-13T01:45:46.305Z,0
2017-08-13T01:46:56.276Z,0
2017-08-13T01:48:06.226Z,0
2017-08-13T01:49:15.539Z,0
2017-08-13T01:50:25.151Z,0
2017-08-13T01:51:35.402Z,0
2017-08-13T01:52:45.633Z,0
2017-08-13T01:53:55.557Z,0
2017-08-13T01:55:05.182Z,0
2017-08-13T01:56:15.119Z,0
2017-08-13T01:57:25.356Z,0
2017-08-13T01:58:35.634Z,0
2017-08-13T01:59:45.618Z,0
2017-08-13T02:00:55.862Z,0
2017-08-13T02:02:05.797Z,0
2017-08-13T02:03:15.745Z,0
2017-08-13T02:04:26.355Z,0
2017-08-13T02:05:35.991Z,0
2017-08-13T02:06:46.230Z,0
2017-08-13T02:07:56.147Z,0
2017-08-13T02:09:06.070Z,0
2017-08-13T02:10:15.690Z,0
2017-08-13T02:11:25.924Z,0
2017-08-13T02:12:35.869Z,0
2017-08-13T02:13:46.100Z,0
2017-08-13T02:14:55.410Z,0
2017-08-13T02:16:05.322Z,0
2017-08-13T02:17:15.583Z,0
2017-08-13T02:18:25.513Z,0
2017-08-13T02:19:35.506Z,0
2017-08-13T02:20:45.466Z,0
2017-08-13T02:21:55.695Z,0
2017-08-13T02:23:05.337Z,0
2017-08-13T02:24:15.611Z,0
2017-08-13T02:25:25.839Z,0
2017-08-13T02:26:36.149Z,0
2017-08-13T02:27:45.801Z,0
2017-08-13T02:28:55.759Z,0
2017-08-13T02:30:06.007Z,0
2017-08-13T02:31:16.302Z,0
2017-08-13T02:32:26.235Z,0
2017-08-13T02:33:36.162Z,0
2017-08-13T02:34:46.382Z,0
2017-08-13T02:35:56.305Z,0
2017-08-13T02:37:05.665Z,0
2017-08-13T02:38:15.899Z,0
2017-08-13T02:39:26.146Z,0
2017-08-13T02:40:36.082Z,0
2017-08-13T02:41:46.328Z,0
2017-08-13T02:42:55.961Z,0
2017-08-13T02:44:05.902Z,0
2017-08-13T02:45:16.162Z,0
2017-08-13T02:46:25.784Z,0
2017-08-13T02:47:35.410Z,0
2017-08-13T02:48:45.678Z,0
2017-08-13T02:49:55.900Z,0
2017-08-13T02:51:06.131Z,0
2017-08-13T02:52:16.381Z,0
2017-08-13T02:53:26.605Z,0
2017-08-13T02:54:36.238Z,0
2017-08-13T02:55:45.870Z,0
2017-08-13T02:56:55.809Z,0
2017-08-13T02:58:06.044Z,0
2017-08-13T02:59:16.283Z,0
2017-08-13T03:00:25.916Z,0
2017-08-13T03:01:36.172Z,0
2017-08-13T03:02:46.403Z,0
2017-08-13T03:03:57.025Z,0
2017-08-13T03:05:07.273Z,0
2017-08-13T03:06:16.905Z,0
2017-08-13T03:07:26.842Z,0
2017-08-13T03:08:36.778Z,0
2017-08-13T03:09:47.018Z,0
2017-08-13T03:10:56.639Z,0
2017-08-13T03:12:06.247Z,0
2017-08-13T03:13:16.166Z,0
2017-08-13T03:14:25.813Z,0
2017-08-13T03:15:36.075Z,0
2017-08-13T03:16:45.710Z,0
2017-08-13T03:17:55.647Z,0
2017-08-13T03:19:05.266Z,0
2017-08-13T03:20:15.526Z,0
2017-08-13T03:21:25.799Z,0
2017-08-13T03:22:36.033Z,0
2017-08-13T03:23:45.961Z,0
2017-08-13T03:24:55.893Z,0
2017-08-13T03:26:06.146Z,0
2017-08-13T03:27:16.382Z,0
2017-08-13T03:28:26.621Z,0
2017-08-13T03:29:36.572Z,0
2017-08-13T03:30:46.201Z,0
2017-08-13T03:31:55.871Z,0
2017-08-13T03:33:05.498Z,0
2017-08-13T03:34:15.419Z,0
2017-08-13T03:35:25.330Z,0
2017-08-13T03:36:34.984Z,0
2017-08-13T03:37:45.223Z,0
2017-08-13T03:38:55.441Z,0
2017-08-13T03:40:05.388Z,0
2017-08-13T03:41:15.321Z,0
2017-08-13T03:42:25.249Z,0
2017-08-13T03:43:35.514Z,0
2017-08-13T03:44:45.748Z,0
2017-08-13T03:45:55.675Z,0
2017-08-13T03:47:05.925Z,0
2017-08-13T03:48:15.567Z,0
2017-08-13T03:49:25.855Z,0
2017-08-13T03:50:36.114Z,0
2017-08-13T03:51:46.334Z,0
2017-08-13T03:52:56.247Z,0
2017-08-13T03:54:06.501Z,0
2017-08-13T03:55:16.417Z,0
2017-08-13T03:56:26.350Z,0
2017-08-13T03:57:36.610Z,4
2017-08-13T03:58:46.219Z,4
2017-08-13T03:59:56.150Z,4
2017-08-13T04:01:06.381Z,4
2017-08-13T04:02:16.328Z,4
2017-08-13T04:03:26.278Z,4
2017-08-13T04:04:35.902Z,4
2017-08-13T04:05:45.817Z,8
2017-08-13T04:06:56.039Z,4
2017-08-13T04:08:05.354Z,8
2017-08-13T04:09:15.593Z,8
2017-08-13T04:10:25.823Z,8
2017-08-13T04:11:36.087Z,12
2017-08-13T04:12:45.409Z,12
2017-08-13T04:13:55.322Z,8
2017-08-13T04:15:04.623Z,8
2017-08-13T04:16:14.235Z,8
2017-08-13T04:17:23.555Z,8
2017-08-13T04:18:33.806Z,8
2017-08-13T04:19:43.428Z,8
2017-08-13T04:20:53.664Z,12
2017-08-13T04:22:03.589Z,20
2017-08-13T04:23:13.536Z,20
2017-08-13T04:24:23.159Z,24
2017-08-13T04:25:32.464Z,28
2017-08-13T04:26:42.379Z,32
2017-08-13T04:27:52.605Z,44
2017-08-13T04:29:02.238Z,44
2017-08-13T04:30:12.493Z,44
2017-08-13T04:31:22.725Z,40
2017-08-13T04:32:32.951Z,36
2017-08-13T04:33:42.878Z,40
2017-08-13T04:34:52.800Z,36
2017-08-13T04:36:03.049Z,28
2017-08-13T04:37:13.292Z,28
2017-08-13T04:38:22.937Z,28
2017-08-13T04:39:32.897Z,24
2017-08-13T04:40:42.827Z,28
2017-08-13T04:41:53.052Z,24
2017-08-13T04:43:02.682Z,28
2017-08-13T04:44:12.604Z,32
2017-08-13T04:45:22.871Z,36
2017-08-13T04:46:33.125Z,40
2017-08-13T04:47:43.088Z,48
2017-08-13T04:48:52.710Z,52
2017-08-13T04:50:02.646Z,48
2017-08-13T04:51:12.573Z,40
2017-08-13T04:52:22.822Z,32
2017-08-13T04:53:32.753Z,28
2017-08-13T04:54:42.394Z,36
2017-08-13T04:55:52.635Z,32
2017-08-13T04:57:02.250Z,20
2017-08-13T04:58:11.886Z,20
2017-08-13T04:59:21.816Z,24
2017-08-13T05:00:30.818Z,28
2017-08-13T05:01:41.073Z,24
2017-08-13T05:02:51.006Z,16
2017-08-13T05:04:00.654Z,24
2017-08-13T05:05:10.580Z,32
2017-08-13T05:06:20.221Z,44
2017-08-13T05:07:30.473Z,68
2017-08-13T05:08:40.397Z,72
2017-08-13T05:09:50.637Z,76
2017-08-13T05:11:00.275Z,80
2017-08-13T05:12:09.888Z,68
2017-08-13T05:13:19.506Z,72
2017-08-13T05:14:29.751Z,68
2017-08-13T05:15:39.989Z,64
2017-08-13T05:16:49.620Z,56
2017-08-13T05:17:59.838Z,52
2017-08-13T05:19:09.771Z,48
2017-08-13T05:20:19.704Z,52
2017-08-13T05:21:29.621Z,44
2017-08-13T05:22:39.860Z,40
2017-08-13T05:23:50.114Z,40
2017-08-13T05:25:00.039Z,48
2017-08-13T05:26:10.277Z,64
2017-08-13T05:27:20.231Z,84
2017-08-13T05:28:30.147Z,88
2017-08-13T05:29:39.457Z,76
2017-08-13T05:30:49.072Z,68
2017-08-13T05:31:59.320Z,68
2017-08-13T05:33:08.942Z,76
2017-08-13T05:34:18.871Z,76
2017-08-13T05:35:28.514Z,76
2017-08-13T05:36:38.460Z,96
2017-08-13T05:37:48.679Z,92
2017-08-13T05:38:58.611Z,88
2017-08-13T05:40:08.540Z,88
2017-08-13T05:41:18.500Z,92
2017-08-13T05:42:28.741Z,100
2017-08-13T05:43:38.682Z,120
2017-08-13T05:44:47.998Z,124
2017-08-13T05:45:57.935Z,124
2017-08-13T05:47:07.549Z,124
2017-08-13T05:48:17.186Z,136
2017-08-13T05:49:27.110Z,124
2017-08-13T05:50:37.040Z,116
2017-08-13T05:51:46.972Z,140
2017-08-13T05:52:56.880Z,172
2017-08-13T05:54:06.832Z,220
2017-08-13T05:55:16.773Z,276
2017-08-13T05:56:26.690Z,268
2017-08-13T05:57:36.915Z,288
2017-08-13T05:58:47.149Z,348
2017-08-13T05:59:57.095Z,404
2017-08-13T06:01:07.328Z,388
2017-08-13T06:02:17.579Z,508
2017-08-13T06:03:26.899Z,652
2017-08-13T06:04:36.819Z,588
2017-08-13T06:05:47.053Z,436
2017-08-13T06:06:56.658Z,352
2017-08-13T06:08:06.892Z,300
2017-08-13T06:09:16.504Z,276
2017-08-13T06:10:26.113Z,256
2017-08-13T06:11:36.041Z,244
2017-08-13T06:12:46.268Z,276
2017-08-13T06:13:56.190Z,348
2017-08-13T06:15:05.846Z,412
2017-08-13T06:16:15.473Z,484
2017-08-13T06:17:25.705Z,664
2017-08-13T06:18:35.346Z,668
2017-08-13T06:19:45.272Z,780
2017-08-13T06:20:55.501Z,876
2017-08-13T06:22:05.120Z,1152
2017-08-13T06:23:15.060Z,1268
2017-08-13T06:24:24.982Z,1360
2017-08-13T06:25:34.898Z,1336
2017-08-13T06:26:44.826Z,1284
2017-08-13T06:27:54.763Z,1276
2017-08-13T06:29:04.987Z,1352
2017-08-13T06:30:14.917Z,1368
2017-08-13T06:31:25.177Z,1488
2017-08-13T06:32:35.448Z,1744
2017-08-13T06:33:45.371Z,1988
2017-08-13T06:34:55.321Z,2144
2017-08-13T06:36:05.250Z,2224
2017-08-13T06:37:14.872Z,2536
2017-08-13T06:38:25.106Z,2900
2017-08-13T06:39:35.046Z,2996
2017-08-13T06:40:44.666Z,2932
2017-08-13T06:41:54.896Z,2976
2017-08-13T06:43:05.144Z,3060
2017-08-13T06:44:15.115Z,3164
2017-08-13T06:45:25.601Z,3372
2017-08-13T06:46:36.349Z,3572
2017-08-13T06:47:47.143Z,3232
2017-08-13T06:48:57.270Z,2768
2017-08-13T06:50:06.719Z,2376
2017-08-13T06:51:16.354Z,3004
2017-08-13T06:52:26.001Z,3188
2017-08-13T06:53:35.635Z,2688
2017-08-13T06:54:46.035Z,2668
2017-08-13T06:55:56.595Z,2236
2017-08-13T06:57:07.110Z,2056
2017-08-13T06:58:18.476Z,2212
2017-08-13T06:59:28.770Z,2212
2017-08-13T07:00:38.708Z,2504
2017-08-13T07:01:48.880Z,1684
2017-08-13T07:02:58.827Z,928
2017-08-13T07:04:08.755Z,748
2017-08-13T07:05:19.002Z,744
2017-08-13T07:06:28.328Z,632
2017-08-13T07:07:37.333Z,820
2017-08-13T07:08:47.265Z,1028
2017-08-13T07:09:57.502Z,1052
2017-08-13T07:11:07.423Z,940
2017-08-13T07:12:17.660Z,988
2017-08-13T07:13:27.587Z,1084
2017-08-13T07:14:37.823Z,1184
2017-08-13T07:15:47.755Z,1428
2017-08-13T07:16:57.973Z,1632
2017-08-13T07:18:07.579Z,1792
2017-08-13T07:19:17.833Z,1872
2017-08-13T07:20:27.456Z,1996
2017-08-13T07:21:37.379Z,2204
2017-08-13T07:22:47.626Z,2500
2017-08-13T07:23:57.558Z,2676
2017-08-13T07:25:07.784Z,3092
2017-08-13T07:26:17.415Z,4008
2017-08-13T07:27:27.651Z,7176
2017-08-13T07:28:37.587Z,18528
2017-08-13T07:29:47.508Z,25600
2017-08-13T07:30:57.752Z,22464
2017-08-13T07:32:07.685Z,21344
2017-08-13T07:33:17.944Z,25696
2017-08-13T07:34:28.214Z,24672
2017-08-13T07:35:37.875Z,20608
2017-08-13T07:36:47.202Z,21024
2017-08-13T07:37:57.439Z,21600
2017-08-13T07:39:07.373Z,24576
2017-08-13T07:40:16.992Z,24480
2017-08-13T07:41:27.226Z,24544
2017-08-13T07:42:36.846Z,30528
2017-08-13T07:43:46.458Z,28064
2017-08-13T07:44:56.390Z,26176
2017-08-13T07:46:06.641Z,25568
2017-08-13T07:47:16.608Z,32096
2017-08-13T07:48:25.936Z,9472
2017-08-13T07:49:36.181Z,9636
2017-08-13T07:50:46.412Z,11240
2017-08-13T07:51:56.915Z,16328
2017-08-13T07:53:06.851Z,16572
2017-08-13T07:54:17.100Z,16564
2017-08-13T07:55:27.350Z,25984
2017-08-13T07:56:37.621Z,28320
2017-08-13T07:57:46.651Z,27424
2017-08-13T07:58:56.590Z,31104
2017-08-13T08:00:06.852Z,32800
2017-08-13T08:01:16.480Z,34848
2017-08-13T08:02:26.716Z,32832
2017-08-13T08:03:36.656Z,34464
2017-08-13T08:04:46.906Z,35392
2017-08-13T08:05:57.161Z,31808
2017-08-13T08:07:06.802Z,30496
2017-08-13T08:08:16.755Z,31040
2017-08-13T08:09:26.743Z,32832
2017-08-13T08:10:36.685Z,28416
2017-08-13T08:11:46.623Z,32608
2017-08-13T08:12:56.873Z,23136
2017-08-13T08:14:06.821Z,7860
2017-08-13T08:15:16.771Z,7512
2017-08-13T08:16:27.011Z,6344
2017-08-13T08:17:36.653Z,6200
2017-08-13T08:18:46.929Z,4856
2017-08-13T08:19:57.178Z,3540
2017-08-13T08:21:07.124Z,5956
2017-08-13T08:22:16.756Z,5608
2017-08-13T08:23:26.093Z,5720
2017-08-13T08:24:36.371Z,5588
2017-08-13T08:25:46.065Z,5960
2017-08-13T08:26:56.307Z,5620
2017-08-13T08:28:06.405Z,4584
2017-08-13T08:29:16.659Z,3424
2017-08-13T08:30:26.277Z,3252
2017-08-13T08:31:36.521Z,2780
2017-08-13T08:32:46.464Z,3508
2017-08-13T08:33:56.395Z,4228
2017-08-13T08:35:06.654Z,3284
2017-08-13T08:36:16.907Z,2816
2017-08-13T08:37:25.923Z,2320
2017-08-13T08:38:35.880Z,2764
2017-08-13T08:39:46.116Z,4248
2017-08-13T08:40:56.063Z,3176
2017-08-13T08:42:05.398Z,2876
2017-08-13T08:43:15.653Z,2928
2017-08-13T08:44:26.875Z,5716
2017-08-13T08:45:37.913Z,5196
2017-08-13T08:46:48.435Z,5836
2017-08-13T08:47:58.684Z,5612
2017-08-13T08:49:08.671Z,4880
2017-08-13T08:50:18.607Z,4172
2017-08-13T08:51:27.961Z,3532
2017-08-13T08:52:37.344Z,2272
2017-08-13T08:53:47.298Z,2496
2017-08-13T08:54:57.593Z,2140
2017-08-13T08:56:07.512Z,1672
2017-08-13T08:57:17.448Z,1444
2017-08-13T08:58:27.411Z,1320
2017-08-13T08:59:37.365Z,1084
2017-08-13T09:00:47.303Z,928
2017-08-13T09:01:57.578Z,868
2017-08-13T09:03:07.810Z,816
2017-08-13T09:04:17.737Z,812
2017-08-13T09:05:27.050Z,884
2017-08-13T09:06:37.310Z,1012
2017-08-13T09:07:47.247Z,964
2017-08-13T09:08:57.201Z,1104
2017-08-13T09:10:07.173Z,1060
2017-08-13T09:11:16.823Z,956
2017-08-13T09:12:26.801Z,988
2017-08-13T09:13:37.058Z,984
2017-08-13T09:14:46.983Z,1168
2017-08-13T09:15:56.916Z,1576
2017-08-13T09:17:07.194Z,1956
2017-08-13T09:18:17.442Z,1960
2017-08-13T09:19:27.691Z,2040
2017-08-13T09:20:37.651Z,2020
2017-08-13T09:21:46.978Z,2120
2017-08-13T09:22:57.266Z,1796
2017-08-13T09:24:07.205Z,1672
2017-08-13T09:25:17.471Z,1792
2017-08-13T09:26:27.106Z,1920
2017-08-13T09:27:37.036Z,1820
2017-08-13T09:28:46.652Z,1740
2017-08-13T09:29:56.900Z,1636
2017-08-13T09:31:07.153Z,2016
2017-08-13T09:32:17.375Z,2040
2017-08-13T09:33:27.025Z,1900
2017-08-13T09:34:37.522Z,1700
2017-08-13T09:35:47.768Z,1540
2017-08-13T09:36:57.424Z,1476
2017-08-13T09:38:07.686Z,1444
2017-08-13T09:39:17.635Z,1388
2017-08-13T09:40:27.866Z,1376
2017-08-13T09:41:37.821Z,1412
2017-08-13T09:42:48.054Z,1436
2017-08-13T09:43:58.322Z,1476
2017-08-13T09:45:08.300Z,1504
2017-08-13T09:46:18.544Z,1608
2017-08-13T09:47:28.488Z,1500
2017-08-13T09:48:38.453Z,1692
2017-08-13T09:49:48.399Z,1616
2017-08-13T09:50:58.010Z,1636
2017-08-13T09:52:07.637Z,1476
2017-08-13T09:53:17.891Z,1428
2017-08-13T09:54:27.520Z,1240
2017-08-13T09:55:37.158Z,1212
2017-08-13T09:56:47.106Z,1196
2017-08-13T09:57:57.038Z,1096
2017-08-13T09:59:06.965Z,928
2017-08-13T10:00:16.925Z,876
2017-08-13T10:01:26.855Z,828
2017-08-13T10:02:36.477Z,756
2017-08-13T10:03:46.397Z,808
2017-08-13T10:04:56.343Z,784
2017-08-13T10:06:06.272Z,880
2017-08-13T10:07:16.506Z,1100
2017-08-13T10:08:26.769Z,1300
2017-08-13T10:09:37.012Z,1452
2017-08-13T10:10:46.365Z,1448
2017-08-13T10:11:56.322Z,1620
2017-08-13T10:13:06.901Z,1920
2017-08-13T10:14:17.185Z,1804
2017-08-13T10:15:27.102Z,1588
2017-08-13T10:16:37.444Z,1360
2017-08-13T10:17:46.445Z,1236
2017-08-13T10:18:56.492Z,1264
2017-08-13T10:20:06.529Z,1192
2017-08-13T10:21:16.759Z,1084
2017-08-13T10:22:27.789Z,1056
2017-08-13T10:23:37.801Z,944
2017-08-13T10:24:47.817Z,944
2017-08-13T10:25:57.800Z,976
2017-08-13T10:27:07.767Z,1008
2017-08-13T10:28:17.703Z,1228
2017-08-13T10:29:27.973Z,1260
2017-08-13T10:30:37.625Z,1224
2017-08-13T10:31:46.917Z,1308
2017-08-13T10:32:56.837Z,1280
2017-08-13T10:34:07.102Z,1248
2017-08-13T10:35:17.349Z,1256
2017-08-13T10:36:27.264Z,1240
2017-08-13T10:37:36.935Z,1188
2017-08-13T10:38:46.588Z,1200
2017-08-13T10:39:56.510Z,1208
2017-08-13T10:41:06.486Z,1212
2017-08-13T10:42:15.807Z,1204
2017-08-13T10:43:25.810Z,1248
2017-08-13T10:44:36.089Z,1328
2017-08-13T10:45:46.019Z,1436
2017-08-13T10:46:55.976Z,1520
2017-08-13T10:48:06.702Z,1600
2017-08-13T10:49:16.991Z,1516
2017-08-13T10:50:27.260Z,1468
2017-08-13T10:51:36.622Z,1416
2017-08-13T10:52:46.900Z,1380
2017-08-13T10:53:57.159Z,1652
2017-08-13T10:55:07.447Z,1528
2017-08-13T10:56:17.059Z,1628
2017-08-13T10:57:27.308Z,1508
2017-08-13T10:58:37.554Z,1304
2017-08-13T10:59:47.802Z,1148
2017-08-13T11:00:58.079Z,1288
2017-08-13T11:02:08.356Z,1276
2017-08-13T11:03:18.300Z,1120
2017-08-13T11:04:28.578Z,1020
2017-08-13T11:05:38.831Z,968
2017-08-13T11:06:48.785Z,868
2017-08-13T11:07:58.730Z,800
2017-08-13T11:09:08.974Z,776
2017-08-13T11:10:19.229Z,840
2017-08-13T11:11:29.476Z,968
2017-08-13T11:12:38.792Z,1008
2017-08-13T11:13:49.031Z,860
2017-08-13T11:14:58.683Z,864
2017-08-13T11:16:08.615Z,988
2017-08-13T11:17:18.903Z,964
2017-08-13T11:18:29.153Z,1028
2017-08-13T11:19:39.422Z,1068
2017-08-13T11:20:49.047Z,920
2017-08-13T11:21:59.005Z,816
2017-08-13T11:23:08.952Z,808
2017-08-13T11:24:19.202Z,868
2017-08-13T11:25:28.850Z,964
2017-08-13T11:26:39.114Z,1040
2017-08-13T11:27:49.072Z,1124
2017-08-13T11:28:58.712Z,1296
2017-08-13T11:30:08.686Z,1544
2017-08-13T11:31:18.645Z,1512
2017-08-13T11:32:28.610Z,1640
2017-08-13T11:33:38.861Z,1716
2017-08-13T11:34:48.502Z,1676
2017-08-13T11:35:58.773Z,1576
2017-08-13T11:37:09.028Z,1448
2017-08-13T11:38:19.272Z,1488
2017-08-13T11:39:28.602Z,1628
2017-08-13T11:40:38.850Z,1712
2017-08-13T11:41:48.516Z,1860
2017-08-13T11:42:58.476Z,1900
2017-08-13T11:44:08.764Z,1828
2017-08-13T11:45:18.439Z,1692
2017-08-13T11:46:28.093Z,1700
2017-08-13T11:47:38.055Z,1520
2017-08-13T11:48:47.702Z,1472
2017-08-13T11:49:57.636Z,1416
2017-08-13T11:51:07.905Z,1436
2017-08-13T11:52:17.562Z,1568
2017-08-13T11:53:27.501Z,1580
2017-08-13T11:54:37.450Z,1516
2017-08-13T11:55:47.069Z,1428
2017-08-13T11:56:57.304Z,1392
2017-08-13T11:58:07.080Z,1500
2017-08-13T11:59:17.333Z,1288
2017-08-13T12:00:27.306Z,1104
2017-08-13T12:01:37.277Z,1112
2017-08-13T12:02:47.219Z,1208
2017-08-13T12:03:57.463Z,1208
2017-08-13T12:05:07.130Z,1044
2017-08-13T12:06:18.203Z,1036
2017-08-13T12:07:28.163Z,1084
2017-08-13T12:08:38.497Z,1248
2017-08-13T12:09:48.470Z,1156
2017-08-13T12:10:58.765Z,988
2017-08-13T12:12:08.995Z,924
2017-08-13T12:13:19.239Z,888
2017-08-13T12:14:29.176Z,964
2017-08-13T12:15:39.410Z,940
2017-08-13T12:16:49.052Z,908
2017-08-13T12:17:58.676Z,888
2017-08-13T12:19:08.973Z,844
2017-08-13T12:20:18.908Z,788
2017-08-13T12:21:28.282Z,764
2017-08-13T12:22:38.242Z,760
2017-08-13T12:23:48.214Z,760
2017-08-13T12:24:58.476Z,788
2017-08-13T12:26:08.467Z,804
2017-08-13T12:27:18.708Z,860
2017-08-13T12:28:28.345Z,820
2017-08-13T12:29:38.287Z,768
2017-08-13T12:30:48.242Z,744
2017-08-13T12:31:58.535Z,696
2017-08-13T12:33:08.179Z,684
2017-08-13T12:34:17.813Z,728
2017-08-13T12:35:28.076Z,916
2017-08-13T12:36:37.401Z,1040
2017-08-13T12:37:46.439Z,1056
2017-08-13T12:38:56.068Z,1036
2017-08-13T12:40:06.002Z,1116
2017-08-13T12:41:15.943Z,1160
2017-08-13T12:42:26.176Z,1108
2017-08-13T12:43:36.115Z,1220
2017-08-13T12:44:45.740Z,1232
2017-08-13T12:45:55.995Z,1128
2017-08-13T12:47:06.243Z,1100
2017-08-13T12:48:16.196Z,1068
2017-08-13T12:49:25.858Z,968
2017-08-13T12:50:35.488Z,856
2017-08-13T12:51:45.726Z,808
2017-08-13T12:52:55.370Z,788
2017-08-13T12:54:05.011Z,784
2017-08-13T12:55:14.650Z,788
2017-08-13T12:56:24.898Z,740
2017-08-13T12:57:35.526Z,684
2017-08-13T12:58:45.784Z,672
2017-08-13T12:59:55.713Z,712
2017-08-13T13:01:05.350Z,700
2017-08-13T13:02:15.289Z,720
2017-08-13T13:03:25.567Z,716
2017-08-13T13:04:35.925Z,760
2017-08-13T13:05:46.231Z,816
2017-08-13T13:06:56.468Z,816
2017-08-13T13:08:06.803Z,836
2017-08-13T13:09:17.047Z,840
2017-08-13T13:10:27.015Z,852
2017-08-13T13:11:36.944Z,892
2017-08-13T13:12:46.634Z,844
2017-08-13T13:13:56.282Z,752
2017-08-13T13:15:06.526Z,704
2017-08-13T13:16:16.468Z,684
2017-08-13T13:17:25.791Z,672
2017-08-13T13:18:36.024Z,668
2017-08-13T13:19:45.979Z,664
2017-08-13T13:20:56.225Z,632
2017-08-13T13:22:06.206Z,620
2017-08-13T13:23:16.062Z,632
2017-08-13T13:24:25.844Z,652
2017-08-13T13:25:35.799Z,692
2017-08-13T13:26:45.215Z,524
2017-08-13T13:27:54.756Z,692
2017-08-13T13:29:04.746Z,592
2017-08-13T13:30:14.780Z,496
2017-08-13T13:31:24.105Z,644
2017-08-13T13:32:34.050Z,644
2017-08-13T13:33:44.035Z,684
2017-08-13T13:34:53.356Z,744
2017-08-13T13:36:03.066Z,880
2017-08-13T13:37:12.743Z,1016
2017-08-13T13:38:22.675Z,1128
2017-08-13T13:39:32.291Z,1200
2017-08-13T13:40:42.225Z,1200
2017-08-13T13:41:52.487Z,1152
2017-08-13T13:43:02.616Z,1148
2017-08-13T13:44:12.560Z,924
2017-08-13T13:45:22.808Z,888
2017-08-13T13:46:32.749Z,828
2017-08-13T13:47:42.386Z,780
2017-08-13T13:48:52.427Z,780
2017-08-13T13:50:02.516Z,840
2017-08-13T13:51:12.451Z,852
2017-08-13T13:52:22.732Z,868
2017-08-13T13:53:32.061Z,876
2017-08-13T13:54:41.979Z,760
2017-08-13T13:55:51.624Z,812
2017-08-13T13:57:01.847Z,660
2017-08-13T13:58:11.508Z,628
2017-08-13T13:59:21.764Z,652
2017-08-13T14:00:31.396Z,832
2017-08-13T14:01:41.346Z,704
2017-08-13T14:02:51.618Z,756
2017-08-13T14:04:02.032Z,1024
2017-08-13T14:05:12.333Z,1084
2017-08-13T14:06:22.782Z,1128
2017-08-13T14:07:32.436Z,1004
2017-08-13T14:08:42.405Z,1140
2017-08-13T14:09:52.429Z,1052
2017-08-13T14:11:03.805Z,908
2017-08-13T14:12:13.518Z,836
2017-08-13T14:13:23.134Z,804
2017-08-13T14:14:33.072Z,800
2017-08-13T14:15:43.309Z,868
2017-08-13T14:16:53.254Z,944
2017-08-13T14:18:03.422Z,1196
2017-08-13T14:19:13.042Z,1204
2017-08-13T14:20:22.991Z,1152
2017-08-13T14:21:34.695Z,1084
2017-08-13T14:22:45.572Z,1024
2017-08-13T14:23:55.253Z,904
2017-08-13T14:25:04.888Z,808
2017-08-13T14:26:15.132Z,748
2017-08-13T14:27:25.395Z,676
2017-08-13T14:28:35.648Z,656
2017-08-13T14:29:45.615Z,508
2017-08-13T14:30:55.561Z,504
2017-08-13T14:32:05.791Z,484
2017-08-13T14:33:15.572Z,452
2017-08-13T14:34:25.190Z,424
2017-08-13T14:35:34.816Z,400
2017-08-13T14:36:44.426Z,408
2017-08-13T14:37:54.041Z,492
2017-08-13T14:39:03.670Z,508
2017-08-13T14:40:13.912Z,664
2017-08-13T14:41:24.208Z,644
2017-08-13T14:42:33.864Z,612
2017-08-13T14:43:43.883Z,492
2017-08-13T14:44:53.564Z,480
2017-08-13T14:46:03.520Z,468
2017-08-13T14:47:13.212Z,464
2017-08-13T14:48:23.157Z,464
2017-08-13T14:49:33.126Z,556
2017-08-13T14:50:43.417Z,680
2017-08-13T14:51:53.086Z,768
2017-08-13T14:53:02.400Z,764
2017-08-13T14:54:12.340Z,776
2017-08-13T14:55:21.998Z,764
2017-08-13T14:56:31.989Z,848
2017-08-13T14:57:41.906Z,984
2017-08-13T14:58:52.354Z,1040
2017-08-13T15:00:01.991Z,1060
2017-08-13T15:01:11.338Z,976
2017-08-13T15:02:21.589Z,912
2017-08-13T15:03:31.814Z,896
2017-08-13T15:04:41.737Z,924
2017-08-13T15:05:51.687Z,892
2017-08-13T15:07:01.619Z,880
2017-08-13T15:08:11.851Z,812
2017-08-13T15:09:21.798Z,772
2017-08-13T15:10:31.116Z,736
2017-08-13T15:11:41.346Z,704
2017-08-13T15:12:51.654Z,656
2017-08-13T15:14:01.811Z,736
2017-08-13T15:15:11.778Z,600
2017-08-13T15:16:21.406Z,676
2017-08-13T15:17:31.657Z,584
2017-08-13T15:18:41.611Z,520
2017-08-13T15:19:51.841Z,500
2017-08-13T15:21:01.481Z,528
2017-08-13T15:22:11.484Z,540
2017-08-13T15:23:20.630Z,516
2017-08-13T15:24:30.423Z,496
2017-08-13T15:25:40.048Z,500
2017-08-13T15:26:49.986Z,496
2017-08-13T15:28:00.221Z,508
2017-08-13T15:29:10.165Z,512
2017-08-13T15:30:20.400Z,524
2017-08-13T15:31:29.710Z,508
2017-08-13T15:32:39.355Z,504
2017-08-13T15:33:49.586Z,504
2017-08-13T15:34:59.810Z,604
2017-08-13T15:36:10.050Z,616
2017-08-13T15:37:20.290Z,624
2017-08-13T15:38:30.247Z,624
2017-08-13T15:39:40.186Z,608
2017-08-13T15:40:50.417Z,592
2017-08-13T15:42:00.043Z,572
2017-08-13T15:43:10.317Z,560
2017-08-13T15:44:20.234Z,548
2017-08-13T15:45:30.613Z,536
2017-08-13T15:46:40.921Z,528
2017-08-13T15:47:51.158Z,520
2017-08-13T15:49:01.089Z,516
2017-08-13T15:50:10.710Z,516
2017-08-13T15:51:20.354Z,436
2017-08-13T15:52:30.287Z,496
2017-08-13T15:53:39.900Z,496
2017-08-13T15:54:50.132Z,480
2017-08-13T15:56:00.056Z,408
2017-08-13T15:57:09.981Z,380
2017-08-13T15:58:20.200Z,376
2017-08-13T15:59:29.818Z,360
2017-08-13T16:00:39.158Z,356
2017-08-13T16:01:48.797Z,352
2017-08-13T16:02:59.058Z,348
2017-08-13T16:04:09.318Z,352
2017-08-13T16:05:19.246Z,360
2017-08-13T16:06:29.202Z,384
2017-08-13T16:07:39.174Z,416
2017-08-13T16:08:48.849Z,444
2017-08-13T16:09:58.811Z,448
2017-08-13T16:11:08.165Z,468
2017-08-13T16:12:17.810Z,484
2017-08-13T16:13:27.751Z,504
2017-08-13T16:14:37.399Z,516
2017-08-13T16:15:47.054Z,520
2017-08-13T16:16:57.320Z,556
2017-08-13T16:18:07.288Z,592
2017-08-13T16:19:16.963Z,592
2017-08-13T16:20:26.624Z,580